createdAt,value
2023-08-14T00:01:05.590Z,100.00
2023-08-14T00:03:33.105Z,100.00
2023-08-14T00:06:00.389Z,100.00
2023-08-14T00:08:27.563Z,100.00
2023-08-14T00:10:56.368Z,100.00
2023-08-14T00:13:24.062Z,100.00
2023-08-14T00:15:51.326Z,100.00
2023-08-14T00:18:19.692Z,100.00
2023-08-14T00:20:47.008Z,100.00
2023-08-14T00:23:14.319Z,100.00
2023-08-14T00:25:41.658Z,100.00
2023-08-14T00:28:08.789Z,100.00
2023-08-14T00:30:35.954Z,100.00
2023-08-14T00:33:03.033Z,100.00
2023-08-14T00:35:30.596Z,100.00
2023-08-14T00:37:58.022Z,100.00
2023-08-14T00:40:25.265Z,100.00
2023-08-14T00:42:52.233Z,100.00
2023-08-14T00:45:19.184Z,100.00
2023-08-14T00:47:48.182Z,100.00
2023-08-14T00:50:18.018Z,100.00
2023-08-14T00:52:48.883Z,100.00
2023-08-14T00:55:29.785Z,100.00
2023-08-14T00:57:57.916Z,100.00
2023-08-14T01:00:29.334Z,100.00
2023-08-14T01:02:56.595Z,100.00
2023-08-14T01:05:25.035Z,100.00
2023-08-14T01:07:51.843Z,100.00
2023-08-14T01:10:19.365Z,100.00
2023-08-14T01:13:00.282Z,100.00
2023-08-14T01:15:40.385Z,100.00
2023-08-14T01:18:10.979Z,100.00
2023-08-14T01:20:41.425Z,100.00
2023-08-14T01:23:49.806Z,100.00
2023-08-14T01:26:16.900Z,100.00
2023-08-14T01:28:44.556Z,100.00
2023-08-14T01:31:11.750Z,100.00
2023-08-14T01:33:38.898Z,100.00
2023-08-14T01:36:37.488Z,100.00
2023-08-14T01:39:10.885Z,100.00
2023-08-14T01:42:18.167Z,100.00
2023-08-14T01:44:50.163Z,100.00
2023-08-14T01:47:17.978Z,100.00
2023-08-14T01:49:47.134Z,100.00
2023-08-14T01:52:14.308Z,100.00
2023-08-14T01:54:41.334Z,100.00
2023-08-14T01:57:08.482Z,100.00
2023-08-14T01:59:55.999Z,100.00
2023-08-14T02:02:23.227Z,100.00
2023-08-14T02:04:52.919Z,100.00
2023-08-14T02:07:22.542Z,100.00
2023-08-14T02:09:49.347Z,100.00
2023-08-14T02:12:19.308Z,100.00
2023-08-14T02:14:46.499Z,100.00
2023-08-14T02:17:13.334Z,100.00
2023-08-14T02:19:40.262Z,100.00
2023-08-14T02:22:07.241Z,100.00
2023-08-14T02:24:34.451Z,100.00
2023-08-14T02:27:01.313Z,100.00
2023-08-14T02:29:28.504Z,100.00
2023-08-14T02:31:55.343Z,100.00
2023-08-14T02:34:44.086Z,100.00
2023-08-14T02:37:12.706Z,100.00
2023-08-14T02:39:40.359Z,100.00
2023-08-14T02:42:08.342Z,100.00
2023-08-14T02:44:36.420Z,100.00
2023-08-14T02:47:04.870Z,100.00
2023-08-14T02:49:32.039Z,100.00
2023-08-14T02:51:59.011Z,100.00
2023-08-14T02:54:25.927Z,100.00
2023-08-14T02:56:54.860Z,100.00
2023-08-14T02:59:22.798Z,100.00
2023-08-14T03:01:50.135Z,100.00
2023-08-14T03:04:18.354Z,100.00
2023-08-14T03:06:45.594Z,100.00
2023-08-14T03:09:13.147Z,100.00
2023-08-14T03:11:40.289Z,100.00
2023-08-14T03:14:07.693Z,100.00
2023-08-14T03:16:34.960Z,100.00
2023-08-14T03:19:01.886Z,100.00
2023-08-14T03:21:29.268Z,100.00
2023-08-14T03:23:56.723Z,100.00
2023-08-14T03:26:23.863Z,100.00
2023-08-14T03:28:51.014Z,100.00
2023-08-14T03:31:17.961Z,100.00
2023-08-14T03:33:44.815Z,100.00
2023-08-14T03:36:11.901Z,100.00
2023-08-14T03:38:38.831Z,100.00
2023-08-14T03:41:05.826Z,100.00
2023-08-14T03:43:33.342Z,100.00
2023-08-14T03:46:00.513Z,100.00
2023-08-14T03:48:27.620Z,100.00
2023-08-14T03:50:54.846Z,100.00
2023-08-14T03:53:21.994Z,100.00
2023-08-14T03:55:50.086Z,100.00
2023-08-14T03:58:18.260Z,100.00
2023-08-14T04:00:48.102Z,100.00
2023-08-14T04:03:15.895Z,100.00
2023-08-14T04:05:43.049Z,100.00
2023-08-14T04:08:10.310Z,100.00
2023-08-14T04:10:38.189Z,100.00
2023-08-14T04:13:05.148Z,100.00
2023-08-14T04:15:32.891Z,100.00
2023-08-14T04:18:00.308Z,100.00
2023-08-14T04:20:27.274Z,100.00
2023-08-14T04:22:54.248Z,100.00
2023-08-14T04:25:21.528Z,100.00
2023-08-14T04:27:48.464Z,100.00
2023-08-14T04:30:15.574Z,100.00
2023-08-14T04:32:42.607Z,100.00
2023-08-14T04:35:10.263Z,100.00
2023-08-14T04:37:37.642Z,100.00
2023-08-14T04:40:06.391Z,100.00
2023-08-14T04:42:34.490Z,100.00
2023-08-14T04:45:01.878Z,100.00
2023-08-14T04:47:28.865Z,100.00
2023-08-14T04:49:56.045Z,100.00
2023-08-14T04:52:23.455Z,100.00
2023-08-14T04:54:51.125Z,100.00
2023-08-14T04:57:18.265Z,100.00
2023-08-14T04:59:45.488Z,100.00
2023-08-14T05:02:12.431Z,100.00
2023-08-14T05:04:39.614Z,100.00
2023-08-14T05:07:06.565Z,100.00
2023-08-14T05:09:33.560Z,100.00
2023-08-14T05:12:02.395Z,100.00
2023-08-14T05:14:29.618Z,100.00
2023-08-14T05:16:56.661Z,100.00
2023-08-14T05:19:23.508Z,100.00
2023-08-14T05:21:50.549Z,100.00
2023-08-14T05:24:17.683Z,100.00
2023-08-14T05:26:45.101Z,100.00
2023-08-14T05:29:12.477Z,100.00
2023-08-14T05:31:39.403Z,100.00
2023-08-14T05:34:08.878Z,100.00
2023-08-14T05:36:35.761Z,100.00
2023-08-14T05:39:02.793Z,100.00
2023-08-14T05:41:29.685Z,100.00
2023-08-14T05:43:56.691Z,100.00
2023-08-14T05:46:25.350Z,100.00
2023-08-14T05:48:52.601Z,100.00
2023-08-14T05:51:19.593Z,100.00
2023-08-14T05:53:46.735Z,100.00
2023-08-14T05:56:13.656Z,100.00
2023-08-14T05:58:40.917Z,100.00
2023-08-14T06:01:08.107Z,100.00
2023-08-14T06:03:44.011Z,100.00
2023-08-14T06:06:12.547Z,100.00
2023-08-14T06:08:39.557Z,100.00
2023-08-14T06:11:06.794Z,100.00
2023-08-14T06:13:34.028Z,100.00
2023-08-14T06:16:01.090Z,100.00
2023-08-14T06:18:28.264Z,100.00
2023-08-14T06:20:55.799Z,100.00
2023-08-14T06:23:23.090Z,100.00
2023-08-14T06:25:50.289Z,100.00
2023-08-14T06:28:17.671Z,100.00
2023-08-14T06:30:45.195Z,100.00
2023-08-14T06:33:13.878Z,100.00
2023-08-14T06:35:42.452Z,100.00
2023-08-14T06:38:09.565Z,100.00
2023-08-14T06:40:36.604Z,100.00
2023-08-14T06:43:04.408Z,100.00
2023-08-14T06:45:31.570Z,100.00
2023-08-14T06:47:58.804Z,100.00
2023-08-14T06:50:25.864Z,100.00
2023-08-14T06:52:53.923Z,100.00
2023-08-14T06:55:22.303Z,100.00
2023-08-14T06:57:49.619Z,100.00
2023-08-14T07:00:16.900Z,100.00
2023-08-14T07:02:46.793Z,100.00
2023-08-14T07:05:14.608Z,100.00
2023-08-14T07:07:42.283Z,100.00
2023-08-14T07:10:09.990Z,100.00
2023-08-14T07:12:38.521Z,100.00
2023-08-14T07:15:09.811Z,100.00
2023-08-14T07:17:37.096Z,100.00
2023-08-14T07:20:10.739Z,100.00
2023-08-14T07:22:38.654Z,100.00
2023-08-14T07:25:06.990Z,100.00
2023-08-14T07:27:34.128Z,100.00
2023-08-14T07:30:01.226Z,100.00
2023-08-14T07:32:28.231Z,100.00
2023-08-14T07:34:55.370Z,100.00
2023-08-14T07:37:22.508Z,100.00
2023-08-14T07:39:49.429Z,100.00
2023-08-14T07:42:16.692Z,100.00
2023-08-14T07:44:43.736Z,100.00
2023-08-14T07:47:12.161Z,100.00
2023-08-14T07:49:39.726Z,100.00
2023-08-14T07:52:07.685Z,100.00
2023-08-14T07:58:50.073Z,100.00
2023-08-14T08:01:17.108Z,100.00
2023-08-14T08:03:44.003Z,100.00
2023-08-14T08:06:11.059Z,100.00
2023-08-14T08:08:37.950Z,100.00
2023-08-14T08:11:04.892Z,100.00
2023-08-14T08:13:31.718Z,99.06
2023-08-14T08:15:58.584Z,98.87
2023-08-14T08:18:25.351Z,95.59
2023-08-14T08:20:52.381Z,92.58
2023-08-14T08:23:19.176Z,91.02
2023-08-14T08:25:46.002Z,90.51
2023-08-14T08:28:13.263Z,91.31
2023-08-14T08:30:40.402Z,90.50
2023-08-14T08:33:07.855Z,88.42
2023-08-14T08:35:34.738Z,86.15
2023-08-14T08:38:01.588Z,87.18
2023-08-14T08:40:30.651Z,84.82
2023-08-14T08:43:01.041Z,84.24
2023-08-14T08:45:34.481Z,86.21
2023-08-14T08:48:05.103Z,87.62
2023-08-14T08:50:32.848Z,88.00
2023-08-14T08:53:00.443Z,84.20
2023-08-14T08:55:28.010Z,84.12
2023-08-14T08:57:55.969Z,82.93
2023-08-14T09:00:25.883Z,84.39
2023-08-14T09:02:53.355Z,84.78
2023-08-14T09:05:21.595Z,86.39
2023-08-14T09:07:49.470Z,85.02
2023-08-14T09:10:17.125Z,87.36
2023-08-14T09:12:44.593Z,87.78
2023-08-14T09:15:11.585Z,87.71
2023-08-14T09:17:38.951Z,86.74
2023-08-14T09:20:15.373Z,86.19
2023-08-14T09:22:47.250Z,82.18
2023-08-14T09:25:16.518Z,78.95
2023-08-14T09:27:44.283Z,77.12
2023-08-14T09:30:14.649Z,73.48
2023-08-14T09:32:41.981Z,77.64
2023-08-14T09:35:09.468Z,76.11
2023-08-14T09:37:36.561Z,78.16
2023-08-14T09:40:11.291Z,76.75
2023-08-14T09:42:38.794Z,78.23
2023-08-14T09:45:07.467Z,73.97
2023-08-14T09:47:36.056Z,76.57
2023-08-14T09:50:04.063Z,75.40
2023-08-14T09:52:31.969Z,76.46
2023-08-14T09:57:31.507Z,74.86
2023-08-14T09:59:58.463Z,73.73
2023-08-14T10:02:27.581Z,72.69
2023-08-14T10:04:56.399Z,74.48
2023-08-14T10:07:27.280Z,72.10
2023-08-14T10:09:58.156Z,70.22
2023-08-14T10:12:30.536Z,69.90
2023-08-14T10:15:10.019Z,70.02
2023-08-14T10:18:17.649Z,73.28
2023-08-14T10:20:49.241Z,70.17
2023-08-14T10:23:17.933Z,69.72
2023-08-14T10:25:51.942Z,69.67
2023-08-14T10:28:20.538Z,64.37
2023-08-14T10:30:48.128Z,64.11
2023-08-14T10:33:17.043Z,64.51
2023-08-14T10:35:52.249Z,65.57
2023-08-14T10:38:25.205Z,67.00
2023-08-14T10:41:07.240Z,67.21
2023-08-14T10:43:34.368Z,67.75
2023-08-14T10:46:15.162Z,65.39
2023-08-14T10:48:45.797Z,66.93
2023-08-14T10:51:14.281Z,66.61
2023-08-14T10:53:42.222Z,61.08
2023-08-14T10:56:11.370Z,64.78
2023-08-14T10:58:39.630Z,61.87
2023-08-14T11:01:11.951Z,62.69
2023-08-14T11:04:06.791Z,62.45
2023-08-14T11:06:58.641Z,62.11
2023-08-14T11:09:35.177Z,57.11
2023-08-14T11:12:11.208Z,60.72
2023-08-14T11:14:43.011Z,58.17
2023-08-14T11:17:11.537Z,58.02
2023-08-14T11:19:39.395Z,55.07
2023-08-14T11:22:07.083Z,58.90
2023-08-14T11:24:34.233Z,61.29
2023-08-14T11:27:02.972Z,60.48
2023-08-14T11:29:31.975Z,60.63
2023-08-14T11:32:01.704Z,57.59
2023-08-14T11:34:29.520Z,55.54
2023-08-14T11:39:30.610Z,61.48
2023-08-14T11:41:58.075Z,56.09
2023-08-14T11:44:24.927Z,51.09
2023-08-14T11:46:52.037Z,47.52
2023-08-14T11:49:18.993Z,45.20
2023-08-14T11:51:47.240Z,44.25
2023-08-14T11:54:15.377Z,43.96
2023-08-14T11:56:42.360Z,43.41
2023-08-14T11:59:09.328Z,40.96
2023-08-14T12:01:38.711Z,41.19
2023-08-14T12:04:07.488Z,39.65
2023-08-14T12:06:35.649Z,38.55
2023-08-14T12:09:02.701Z,38.62
2023-08-14T12:11:30.487Z,38.05
2023-08-14T12:13:57.688Z,37.58
2023-08-14T12:16:28.420Z,38.03
2023-08-14T12:18:55.848Z,38.54
2023-08-14T12:21:28.457Z,37.09
2023-08-14T12:23:56.601Z,35.12
2023-08-14T12:26:23.731Z,34.60
2023-08-14T12:28:50.739Z,34.88
2023-08-14T12:31:18.813Z,38.18
2023-08-14T12:33:48.901Z,40.05
2023-08-14T12:36:20.459Z,41.40
2023-08-14T12:38:47.371Z,42.73
2023-08-14T12:41:14.410Z,41.71
2023-08-14T12:43:41.496Z,40.88
2023-08-14T12:46:10.534Z,40.30
2023-08-14T12:48:37.892Z,41.02
2023-08-14T12:51:04.960Z,41.44
2023-08-14T12:53:33.401Z,40.06
2023-08-14T12:56:04.275Z,38.06
2023-08-14T12:58:31.912Z,37.75
2023-08-14T13:01:04.886Z,39.81
2023-08-14T13:03:36.824Z,42.19
2023-08-14T13:06:07.114Z,43.04
2023-08-14T13:08:34.041Z,44.30
2023-08-14T13:11:01.029Z,44.75
2023-08-14T13:13:28.597Z,45.71
2023-08-14T13:15:56.808Z,47.97
2023-08-14T13:18:24.501Z,48.02
2023-08-14T13:20:51.794Z,48.48
2023-08-14T13:23:18.705Z,48.98
2023-08-14T13:25:45.586Z,49.01
2023-08-14T13:28:12.747Z,50.00
2023-08-14T13:30:41.534Z,49.90
2023-08-14T13:33:12.276Z,50.26
2023-08-14T13:35:39.228Z,50.90
2023-08-14T13:38:06.192Z,54.43
2023-08-14T13:40:33.184Z,51.04
2023-08-14T13:43:00.184Z,50.87
2023-08-14T13:45:27.361Z,51.17
2023-08-14T13:47:56.352Z,52.15
2023-08-14T13:50:34.337Z,52.91
2023-08-14T13:53:05.381Z,53.36
2023-08-14T13:55:34.157Z,54.27
2023-08-14T13:58:03.006Z,54.14
2023-08-14T14:00:31.422Z,54.74
2023-08-14T14:02:59.772Z,54.98
2023-08-14T14:05:27.765Z,55.14
2023-08-14T14:07:57.356Z,55.16
2023-08-14T14:10:26.547Z,55.83
2023-08-14T14:15:24.228Z,56.73
2023-08-14T14:17:52.041Z,57.25
2023-08-14T14:20:19.993Z,58.32
2023-08-14T14:22:46.887Z,58.91
2023-08-14T14:25:16.623Z,58.25
2023-08-14T14:27:43.930Z,61.25
2023-08-14T14:30:12.086Z,63.60
2023-08-14T14:32:39.271Z,60.99
2023-08-14T14:35:06.960Z,60.80
2023-08-14T14:37:34.150Z,60.46
2023-08-14T14:40:01.169Z,59.93
2023-08-14T14:42:28.157Z,58.80
2023-08-14T14:44:55.459Z,58.22
2023-08-14T14:47:25.907Z,57.15
2023-08-14T14:49:53.115Z,58.21
2023-08-14T14:52:20.413Z,58.65
2023-08-14T14:54:47.307Z,59.36
2023-08-14T14:57:14.246Z,59.96
2023-08-14T14:59:44.511Z,60.05
2023-08-14T15:02:27.617Z,59.75
2023-08-14T15:04:56.965Z,58.16
2023-08-14T15:07:23.914Z,57.79
2023-08-14T15:09:50.962Z,57.80
2023-08-14T15:12:17.924Z,58.42
2023-08-14T15:14:44.800Z,59.40
2023-08-14T15:17:12.234Z,59.21
2023-08-14T15:19:39.342Z,57.80
2023-08-14T15:22:06.447Z,59.37
2023-08-14T15:24:33.696Z,56.57
2023-08-14T15:27:00.614Z,55.46
2023-08-14T15:29:27.533Z,55.77
2023-08-14T15:31:54.596Z,57.78
2023-08-14T15:34:21.570Z,59.03
2023-08-14T15:36:48.651Z,61.14
2023-08-14T15:39:15.599Z,61.57
2023-08-14T15:41:43.396Z,62.39
2023-08-14T15:44:10.341Z,63.60
2023-08-14T15:46:37.230Z,64.53
2023-08-14T15:49:04.980Z,64.51
2023-08-14T15:51:31.936Z,65.23
2023-08-14T15:53:58.947Z,65.73
2023-08-14T15:56:26.186Z,64.75
2023-08-14T15:58:53.084Z,64.43
2023-08-14T16:01:20.138Z,65.48
2023-08-14T16:03:47.117Z,65.05
2023-08-14T16:06:14.235Z,64.71
2023-08-14T16:08:41.236Z,64.67
2023-08-14T16:11:08.244Z,64.28
2023-08-14T16:13:35.188Z,64.54
2023-08-14T16:16:02.093Z,64.20
2023-08-14T16:18:29.238Z,64.32
2023-08-14T16:20:57.110Z,64.74
2023-08-14T16:23:25.837Z,65.17
2023-08-14T16:25:52.871Z,64.51
2023-08-14T16:28:20.097Z,64.40
2023-08-14T16:30:46.980Z,64.35
2023-08-14T16:33:14.476Z,64.63
2023-08-14T16:35:41.453Z,64.37
2023-08-14T16:38:08.328Z,64.87
2023-08-14T16:40:43.501Z,64.69
2023-08-14T16:43:11.576Z,65.10
2023-08-14T16:45:39.417Z,65.26
2023-08-14T16:48:06.998Z,65.74
2023-08-14T16:50:38.684Z,66.08
2023-08-14T16:53:07.131Z,66.62
2023-08-14T16:55:34.725Z,67.34
2023-08-14T16:58:02.286Z,67.88
2023-08-14T17:00:30.258Z,68.08
2023-08-14T17:02:58.136Z,68.63
2023-08-14T17:05:25.647Z,68.87
2023-08-14T17:07:52.870Z,68.83
2023-08-14T17:10:19.846Z,68.99
2023-08-14T17:12:47.640Z,69.79
2023-08-14T17:15:15.215Z,71.17
2023-08-14T17:17:42.837Z,72.38
2023-08-14T17:20:11.592Z,76.42
2023-08-14T17:22:42.486Z,74.70
2023-08-14T17:25:10.110Z,75.20
2023-08-14T17:27:37.407Z,75.21
2023-08-14T17:30:04.988Z,75.84
2023-08-14T17:32:33.925Z,76.15
2023-08-14T17:35:00.895Z,75.39
2023-08-14T17:37:27.771Z,75.88
2023-08-14T17:39:55.803Z,77.34
2023-08-14T17:42:22.780Z,77.76
2023-08-14T17:44:49.914Z,78.52
2023-08-14T17:47:17.037Z,78.01
2023-08-14T17:49:44.681Z,78.37
2023-08-14T17:52:11.605Z,78.10
2023-08-14T17:54:38.546Z,79.18
2023-08-14T17:57:05.637Z,79.31
2023-08-14T17:59:32.661Z,79.99
2023-08-14T18:01:59.752Z,80.76
2023-08-14T18:04:26.698Z,83.13
2023-08-14T18:06:53.666Z,85.22
2023-08-14T18:09:20.666Z,85.65
2023-08-14T18:11:47.652Z,86.79
2023-08-14T18:14:14.985Z,87.60
2023-08-14T18:16:41.877Z,88.79
2023-08-14T18:19:27.921Z,89.28
2023-08-14T18:21:55.918Z,90.38
2023-08-14T18:24:22.981Z,92.61
2023-08-14T18:26:49.994Z,93.76
2023-08-14T18:29:18.576Z,95.50
2023-08-14T18:31:46.010Z,97.78
2023-08-14T18:34:13.069Z,99.32
2023-08-14T18:36:39.978Z,99.94
2023-08-14T18:39:06.866Z,100.00
2023-08-14T18:41:33.964Z,100.00
2023-08-14T18:44:00.883Z,100.00
2023-08-14T18:46:27.895Z,100.00
2023-08-14T18:48:55.427Z,100.00
2023-08-14T18:51:22.326Z,100.00
2023-08-14T18:53:51.519Z,100.00
2023-08-14T18:56:18.379Z,100.00
2023-08-14T18:58:48.414Z,100.00
2023-08-14T19:01:15.317Z,100.00
2023-08-14T19:03:42.928Z,100.00
2023-08-14T19:06:09.849Z,100.00
2023-08-14T19:08:36.724Z,100.00
2023-08-14T19:11:03.564Z,100.00
2023-08-14T19:13:30.680Z,100.00
2023-08-14T19:15:57.638Z,100.00
2023-08-14T19:18:24.764Z,100.00
2023-08-14T19:20:51.802Z,100.00
2023-08-14T19:23:18.641Z,100.00
2023-08-14T19:25:46.204Z,100.00
2023-08-14T19:28:21.587Z,100.00
2023-08-14T19:30:50.960Z,100.00
2023-08-14T19:33:18.056Z,100.00
2023-08-14T19:35:45.036Z,100.00
2023-08-14T19:38:12.182Z,100.00
2023-08-14T19:40:39.436Z,100.00
2023-08-14T19:43:06.332Z,100.00
2023-08-14T19:45:36.559Z,100.00
2023-08-14T19:48:04.432Z,100.00
2023-08-14T19:50:32.302Z,100.00
2023-08-14T19:53:00.163Z,100.00
2023-08-14T19:55:27.699Z,100.00
2023-08-14T19:57:54.886Z,100.00
2023-08-14T20:00:22.039Z,100.00
2023-08-14T20:02:51.607Z,100.00
2023-08-14T20:05:18.952Z,100.00
2023-08-14T20:07:45.803Z,100.00
2023-08-14T20:10:12.712Z,100.00
2023-08-14T20:12:39.969Z,100.00
2023-08-14T20:15:07.751Z,100.00
2023-08-14T20:17:34.733Z,100.00
2023-08-14T20:20:01.583Z,100.00
2023-08-14T20:22:28.643Z,100.00
2023-08-14T20:24:56.000Z,100.00
2023-08-14T20:27:23.033Z,100.00
2023-08-14T20:29:50.028Z,100.00
2023-08-14T20:32:16.912Z,100.00
2023-08-14T20:34:44.310Z,100.00
2023-08-14T20:37:12.051Z,100.00
2023-08-14T20:39:39.449Z,100.00
2023-08-14T20:42:06.468Z,100.00
2023-08-14T20:44:33.334Z,100.00
2023-08-14T20:47:00.389Z,100.00
2023-08-14T20:49:28.717Z,100.00
2023-08-14T20:51:55.537Z,100.00
2023-08-14T20:54:22.549Z,100.00
2023-08-14T20:56:50.464Z,100.00
2023-08-14T20:59:17.470Z,100.00
2023-08-14T21:01:46.951Z,100.00
2023-08-14T21:04:13.824Z,100.00
2023-08-14T21:06:40.760Z,100.00
2023-08-14T21:09:07.689Z,100.00
2023-08-14T21:11:34.531Z,100.00
2023-08-14T21:14:01.575Z,100.00
2023-08-14T21:16:28.546Z,100.00
2023-08-14T21:18:55.486Z,100.00
2023-08-14T21:21:22.538Z,100.00
2023-08-14T21:23:49.339Z,100.00
2023-08-14T21:26:16.485Z,100.00
2023-08-14T21:28:45.517Z,100.00
2023-08-14T21:31:13.461Z,100.00
2023-08-14T21:33:40.658Z,100.00
2023-08-14T21:36:07.642Z,100.00
2023-08-14T21:38:34.597Z,100.00
2023-08-14T21:41:04.895Z,100.00
2023-08-14T21:43:32.019Z,100.00
2023-08-14T21:45:59.016Z,100.00
2023-08-14T21:48:25.955Z,100.00
2023-08-14T21:50:53.103Z,100.00
2023-08-14T21:53:22.015Z,100.00
2023-08-14T21:55:50.617Z,100.00
2023-08-14T21:58:17.884Z,100.00
2023-08-14T22:00:45.194Z,100.00
2023-08-14T22:03:12.175Z,100.00
2023-08-14T22:05:39.123Z,100.00
2023-08-14T22:08:06.221Z,100.00
2023-08-14T22:10:33.090Z,100.00
2023-08-14T22:12:59.957Z,100.00
2023-08-14T22:15:36.716Z,100.00
2023-08-14T22:18:15.605Z,100.00
2023-08-14T22:20:46.408Z,100.00
2023-08-14T22:23:14.001Z,100.00
2023-08-14T22:25:45.674Z,100.00
2023-08-14T22:28:12.594Z,100.00
2023-08-14T22:30:40.417Z,100.00
2023-08-14T22:33:09.085Z,100.00
2023-08-14T22:35:36.260Z,100.00
2023-08-14T22:38:03.199Z,100.00
2023-08-14T22:40:30.141Z,100.00
2023-08-14T22:42:57.198Z,100.00
2023-08-14T22:45:26.111Z,100.00
2023-08-14T22:47:53.430Z,100.00
2023-08-14T22:50:20.471Z,100.00
2023-08-14T22:52:47.590Z,100.00
2023-08-14T22:55:14.600Z,100.00
2023-08-14T22:57:41.469Z,100.00
2023-08-14T23:00:10.172Z,100.00
2023-08-14T23:02:39.252Z,100.00
2023-08-14T23:05:08.902Z,100.00
2023-08-14T23:07:36.109Z,100.00
2023-08-14T23:10:03.041Z,100.00
2023-08-14T23:12:30.152Z,100.00
2023-08-14T23:14:57.351Z,100.00
2023-08-14T23:17:25.397Z,100.00
2023-08-14T23:19:52.811Z,100.00
2023-08-14T23:22:20.024Z,100.00
2023-08-14T23:24:47.127Z,100.00
2023-08-14T23:27:14.251Z,100.00
2023-08-14T23:29:41.285Z,100.00
2023-08-14T23:32:08.331Z,100.00
2023-08-14T23:34:35.753Z,100.00
2023-08-14T23:37:02.594Z,100.00
2023-08-14T23:39:30.481Z,100.00
2023-08-14T23:41:57.438Z,100.00
2023-08-14T23:44:24.439Z,100.00
2023-08-14T23:46:51.772Z,100.00
2023-08-14T23:49:18.801Z,100.00
2023-08-14T23:51:45.676Z,100.00
2023-08-14T23:54:12.637Z,100.00
2023-08-14T23:56:39.527Z,100.00
2023-08-14T23:59:06.332Z,100.00
